Licenciado Adolfo Lopez Mateos International Airport
MMTO : rendu visible

Aérodrome :











RETROUVEZ-NOUS SUR...

 
LOGIN :

S'inscrire | Disclaimer

   EN    FR    IT 

 









Légende :    VFR   VFR Marginal   IFR   IFR Intensif   IFR Très Intensif
Visi : 
Plafond : 
>= 8 km
>= 3000ft
5 à 8 km
1000 à 3000 ft
1500m à 5 km
500 à 1000 ft
800 à 1500m
200 à 500 ft
< 800m
< 200 ft
Symboles :   Orages  Brouillard  Fortes neiges  Fortes précipitations  Vent > 20 kt






- Altitude de l'aérodrome : 8466 ft
- Code IATA : TLC


MMTO - Licenciado Adolfo Lopez Mateos International

DERNIER METAR :
  • 221246Z 00000KT 1/4SM FG R15/1800FTD VV002 04/03 A3040 RMK 8//// VRB COND RTS

METARs EXPIRÉS :
  • 221148Z 23003KT 5SM SKC 06/05 A3038 RMK SLP140 57005 901 HZY MSG TX MMMX
  • 221048Z 30004KT 5SM SKC 06/05 A3035 RMK HZY MSG TX MMMX

TAF TAF MMTO
Valide du 22 à 12h jusqu'au 23 à 18h UTC


221140Z 2212/2318 00000KT 5SM HZ SKC TX22/2221Z TN05/2212Z
TEMPO 2212/2215 2SM BR SCT010
FM221600 32005KT 6SM HZ SCT015
FM222100 03008KT P6SM SCT015
FM230300 03005KT 5SM HZ SCT012 SCT250
FM230900 00000KT 3SM BR HZ SCT015
TEMPO 2310/2314 1SM BR BKN010
FM231600 03005KT 6SM HZ SCT015 SCT250



MET'MAP, la Météo Aéronautique d'un coup d'oeil ! - Copyright ORBIFLY Décembre 2007 - Disclaimer

ORBIFLY MET'MAP TEAM :

Programmation & Développement : Alexandra Zaïnal
Conception & Développement : Baudouin d'Aumeries
Co-Programmation & Développement : Marc-Olivier Méhu
Soutien technique & logistique : Manuel Goepfert

Contact : metmap@orbifly.com




SOURCES & CREDITS :

   NOAA       Earth
Advisory